Pembroke, NC

4:11 PM EST on December 19, 2014 (GMT -0500)
Lumberton Municipal | Change Station
CLOSE
Current Station
Airport
Location: Lumberton,
Elevation: 125 ft
Nearby Weather Stations

Elev 125 ft 34.61 °N, 79.06 °W | Updated 17 minutes ago

Clear
Clear
59 °F
Feels Like 59 °F
N
0
Wind Variable Wind from North

Today
High -- | Low -- °F
--% Chance of Precip.
Yesterday
High -- | Low -- °F
Precip. -- in
7:18 AM 5:08 PM
Waning Crescent, 6% visible
Pressure 30.11 in
Visibility 10.0 miles
Clouds Clear
Dew Point 26 °F
Humidity 28%
Rainfall 0.00 in
Snow Depth Not available.
UV 1 out of 12
Pollen 3.00 out of 12
Air Quality Not available.
Flu Activity Not available.
METAR KLBT 192054Z AUTO 00000KT 10SM CLR 15/M03 A3010 RMK AO2 SLP194 T01501033 56005

More Conditions Fewer Conditions

Pressure 30.11 in
Visibility 10.0 miles
Clouds Clear
Dew Point 26 °F
Humidity 28%
Rainfall 0.00 in
Snow Depth Not available.
UV 1 out of 12
Pollen 3.00 out of 12
Air Quality Not available.
Flu Activity Not available.
METAR KLBT 192054Z AUTO 00000KT 10SM CLR 15/M03 A3010 RMK AO2 SLP194 T01501033 56005

More Conditions Fewer Conditions

10-Day Weather Forecast

Almanac

Astronomy

Dec. 19, 2014 Rise Set
Actual Time
Civil Twilight
Nautical Twilight
Astronomical Twilight
Moon
Length of Visible Light
Length of Day
Tomorrow will be .
, % of the Moon is Illuminated

Today's Extremes

State Highs State Lows

Community

WunderPhotos

Upload Photos

1,779,053 photos uploaded!

WunderBlogs® & News

Nearby

Air Quality

  Air Quality AQ Index Pollutant
Not available.

Snow Depth

Station Depth Elevation

Earthquake Activity

City Distance Mag. Time & Date
Minimum magnitude displayed is 2.5.

Coastal Water Temperatures

Place Temperature

Nearby Weather Stations